KMRY/MRY METAR and TAF weather

Enter ICAO airport designator
Station Type Date Time Source
KMRY METAR 2019/10/21 01:54 UTC NOAA

KMRY 210154Z VRB04KT 10SM CLR 17/08 A3010 RMK AO2 SLP203 T01670083


Station Type Date Time Source
KMRY Decoded METAR 2019/10/21 01:54 UTC NOAA

MONTEREY PENINSULA AIRPORT, CA, United States (KMRY) 36-35N 121-51W 66M
Oct 20, 2019 - 09:54 PM EDT / 2019.10.21 0154 UTC
Wind: Variable at 5 MPH (4 KT):0
Visibility: 10 mile(s):0
Sky conditions: clear
Temperature: 62.1 F (16.7 C)
Dew Point: 46.9 F (8.3 C)
Relative Humidity: 57%
Pressure (altimeter): 30.1 in. Hg (1019 hPa)
ob: KMRY 210154Z VRB04KT 10SM CLR 17/08 A3010 RMK AO2 SLP203 T01670083
cycle: 2

Station Type Date Time Source
KMRY TAF 2019/10/20 18:27 UTC NOAA

TAF KMRY 201723Z 2018/2118 33005KT P6SM SKC
FM202000 28010KT P6SM SKC
FM210400 14004KT P6SM SKC
FM210800 VRB03KT P6SM BKN006

Example: see airport list